createdAt,value
2016-07-11T00:00:29.033Z,70.76
2016-07-11T00:01:29.034Z,70.76
2016-07-11T00:02:29.035Z,70.66
2016-07-11T00:03:29.038Z,70.56
2016-07-11T00:04:29.031Z,70.86
2016-07-11T00:05:29.040Z,70.56
2016-07-11T00:06:29.041Z,70.95
2016-07-11T00:07:29.039Z,70.56
2016-07-11T00:08:29.037Z,70.95
2016-07-11T00:09:29.038Z,70.95
2016-07-11T00:10:29.037Z,70.95
2016-07-11T00:11:29.042Z,71.34
2016-07-11T00:12:29.040Z,71.43
2016-07-11T00:13:29.041Z,71.43
2016-07-11T00:14:29.041Z,71.34
2016-07-11T00:15:29.041Z,71.34
2016-07-11T00:16:29.045Z,71.34
2016-07-11T00:17:29.052Z,71.34
2016-07-11T00:18:29.046Z,71.3
2016-07-11T00:19:29.048Z,71.34
2016-07-11T00:20:29.044Z,71.04
2016-07-11T00:21:29.052Z,71.04
2016-07-11T00:22:29.057Z,71.34
2016-07-11T00:23:29.050Z,71.62
2016-07-11T00:24:29.053Z,71.72
2016-07-11T00:25:29.059Z,71.81
2016-07-11T00:26:29.053Z,71.72
2016-07-11T00:27:29.053Z,71.72
2016-07-11T00:28:29.058Z,71.72
2016-07-11T00:29:29.057Z,72.2
2016-07-11T00:30:29.053Z,71.81
2016-07-11T00:31:29.061Z,71.81
2016-07-11T00:32:30.254Z,71.81
2016-07-11T00:33:29.058Z,71.91
2016-07-11T00:34:29.058Z,72.01
2016-07-11T00:35:29.064Z,72.01
2016-07-11T00:36:29.272Z,72.2
2016-07-11T00:37:29.060Z,72.01
2016-07-11T00:38:29.064Z,72.11
2016-07-11T00:39:29.062Z,72.11
2016-07-11T00:40:29.846Z,71.81
2016-07-11T00:41:29.720Z,71.69
2016-07-11T00:42:29.250Z,71.97
2016-07-11T00:43:29.479Z,72.17
2016-07-11T00:44:29.376Z,72.17
2016-07-11T00:45:29.072Z,72.17
2016-07-11T00:46:29.066Z,72.36
2016-07-11T00:47:29.066Z,72.26
2016-07-11T00:48:29.073Z,72.45
2016-07-11T00:49:29.069Z,72.17
2016-07-11T00:50:29.071Z,72.17
2016-07-11T00:51:29.071Z,71.88
2016-07-11T00:52:29.072Z,71.97
2016-07-11T00:53:29.076Z,71.97
2016-07-11T00:54:29.076Z,72.17
2016-07-11T00:55:29.077Z,72.55
2016-07-11T00:56:29.076Z,72.55
2016-07-11T00:57:29.080Z,72.36
2016-07-11T00:58:29.075Z,72.45
2016-07-11T00:59:29.090Z,72.45
2016-07-11T01:00:29.081Z,72.55
2016-07-11T01:01:29.079Z,72.45
2016-07-11T01:02:29.080Z,72.45
2016-07-11T01:03:30.135Z,72.55
2016-07-11T01:04:29.485Z,72.65
2016-07-11T01:05:29.080Z,72.55
2016-07-11T01:06:29.081Z,72.94
2016-07-11T01:07:29.079Z,72.84
2016-07-11T01:08:29.083Z,72.65
2016-07-11T01:09:29.080Z,72.36
2016-07-11T01:10:29.087Z,72.55
2016-07-11T01:11:29.086Z,73.03
2016-07-11T01:12:30.287Z,72.65
2016-07-11T01:13:30.144Z,73.03
2016-07-11T01:15:29.091Z,73.22
2016-07-11T01:16:29.092Z,73.22
2016-07-11T01:17:29.088Z,72.84
2016-07-11T01:18:29.094Z,73.03
2016-07-11T01:19:29.092Z,73.13
2016-07-11T01:20:29.092Z,73.32
2016-07-11T01:21:29.091Z,73.13
2016-07-11T01:22:29.096Z,73.13
2016-07-11T01:23:29.092Z,72.94
2016-07-11T01:24:29.096Z,73.32
2016-07-11T01:25:29.097Z,73.03
2016-07-11T01:26:29.097Z,73.22
2016-07-11T01:27:29.094Z,72.94
2016-07-11T01:28:29.101Z,73.13
2016-07-11T01:29:29.096Z,73.13
2016-07-11T01:30:29.095Z,73.03
2016-07-11T01:31:29.098Z,73.13
2016-07-11T01:32:29.097Z,73.32
2016-07-11T01:33:29.103Z,73.03
2016-07-11T01:34:29.103Z,73.32
2016-07-11T01:35:29.098Z,73.32
2016-07-11T01:36:29.105Z,73.22
2016-07-11T01:37:29.102Z,73.13
2016-07-11T01:38:29.099Z,73.61
2016-07-11T01:39:29.100Z,73.61
2016-07-11T01:40:29.106Z,73.22
2016-07-11T01:41:29.103Z,73.61
2016-07-11T01:42:29.107Z,73.8
2016-07-11T01:43:29.106Z,74.09
2016-07-11T01:44:29.104Z,73.9
2016-07-11T01:45:29.105Z,73.61
2016-07-11T01:46:29.104Z,73.8
2016-07-11T01:47:29.106Z,74.19
2016-07-11T01:48:29.109Z,74.19
2016-07-11T01:49:30.626Z,74.38
2016-07-11T01:50:30.678Z,74.38
2016-07-11T01:51:29.114Z,74.29
2016-07-11T01:52:29.233Z,74.44
2016-07-11T01:53:29.475Z,73.9
2016-07-11T01:54:29.116Z,74.09
2016-07-11T01:55:29.108Z,74.19
2016-07-11T01:56:29.118Z,74.05
2016-07-11T01:57:29.109Z,74.19
2016-07-11T01:59:29.118Z,74.15
2016-07-11T02:00:30.595Z,74.34
2016-07-11T02:01:29.633Z,74.44
2016-07-11T02:02:29.122Z,74.34
2016-07-11T02:03:29.120Z,74.82
2016-07-11T02:04:29.120Z,74.67
2016-07-11T02:05:29.122Z,74.44
2016-07-11T02:06:29.119Z,74.25
2016-07-11T02:07:29.121Z,74.63
2016-07-11T02:08:29.117Z,74.92
2016-07-11T02:09:29.118Z,74.73
2016-07-11T02:10:29.119Z,75.21
2016-07-11T02:11:29.130Z,74.73
2016-07-11T02:12:29.124Z,75.49
2016-07-11T02:13:29.123Z,75.11
2016-07-11T02:14:29.133Z,74.92
2016-07-11T02:15:29.119Z,75.21
2016-07-11T02:16:29.128Z,74.82
2016-07-11T02:17:29.126Z,75.02
2016-07-11T02:18:29.129Z,75.11
2016-07-11T02:19:29.125Z,75.02
2016-07-11T02:20:29.121Z,75.31
2016-07-11T02:21:29.326Z,75.31
2016-07-11T02:22:29.493Z,75.02
2016-07-11T02:23:29.129Z,75.4
2016-07-11T02:24:29.827Z,75.11
2016-07-11T02:25:29.130Z,75.21
2016-07-11T02:26:29.129Z,75.21
2016-07-11T02:27:29.130Z,75.02
2016-07-11T02:28:29.125Z,75.4
2016-07-11T02:29:29.124Z,75.21
2016-07-11T02:30:29.137Z,75.31
2016-07-11T02:31:29.784Z,74.92
2016-07-11T02:32:29.128Z,75.11
2016-07-11T02:33:29.881Z,75.59
2016-07-11T02:34:29.130Z,75.59
2016-07-11T02:35:29.130Z,75.21
2016-07-11T02:36:29.134Z,75.31
2016-07-11T02:37:29.134Z,75.31
2016-07-11T02:38:29.136Z,75.4
2016-07-11T02:39:29.134Z,75.4
2016-07-11T02:40:29.143Z,75.4
2016-07-11T02:41:29.135Z,75.31
2016-07-11T02:42:29.138Z,75.49
2016-07-11T02:43:29.138Z,75.11
2016-07-11T02:44:29.137Z,75.4
2016-07-11T02:45:29.139Z,75.11
2016-07-11T02:46:29.136Z,75.31
2016-07-11T02:47:29.134Z,75.4
2016-07-11T02:48:29.136Z,75.31
2016-07-11T02:49:29.132Z,75.4
2016-07-11T02:50:29.139Z,75.4
2016-07-11T02:51:29.137Z,75.31
2016-07-11T02:52:29.139Z,75.11
2016-07-11T02:53:29.139Z,75.11
2016-07-11T02:54:29.136Z,75.59
2016-07-11T02:55:29.138Z,75.4
2016-07-11T02:56:29.139Z,75.31
2016-07-11T02:57:29.140Z,75.4
2016-07-11T02:58:29.136Z,75.11
2016-07-11T02:59:29.142Z,75.31
2016-07-11T03:00:29.145Z,75.69
2016-07-11T03:01:29.143Z,75.11
2016-07-11T03:02:29.150Z,75.24
2016-07-11T03:03:29.142Z,75.11
2016-07-11T03:04:29.144Z,75.21
2016-07-11T03:05:29.145Z,75.31
2016-07-11T03:06:29.142Z,75.11
2016-07-11T03:07:29.141Z,75.4
2016-07-11T03:08:29.146Z,75.31
2016-07-11T03:09:29.688Z,75.11
2016-07-11T03:10:29.143Z,75.49
2016-07-11T03:11:30.045Z,75.31
2016-07-11T03:12:29.145Z,75.63
2016-07-11T03:13:29.146Z,75.4
2016-07-11T03:14:29.147Z,75.73
2016-07-11T03:15:29.145Z,75.44
2016-07-11T03:16:29.480Z,75.44
2016-07-11T03:17:29.264Z,75.15
2016-07-11T03:18:29.297Z,75.44
2016-07-11T03:19:29.321Z,75.44
2016-07-11T03:20:29.151Z,75.34
2016-07-11T03:21:29.500Z,75.63
2016-07-11T03:22:29.686Z,75.73
2016-07-11T03:23:29.222Z,75.73
2016-07-11T03:24:29.153Z,74.86
2016-07-11T03:25:29.152Z,75.15
2016-07-11T03:26:29.152Z,75.34
2016-07-11T03:27:29.150Z,74.96
2016-07-11T03:28:29.154Z,75.44
2016-07-11T03:29:29.157Z,75.19
2016-07-11T03:30:29.151Z,75.09
2016-07-11T03:31:29.152Z,75.28
2016-07-11T03:32:29.159Z,75.09
2016-07-11T03:33:29.151Z,75.28
2016-07-11T03:34:29.154Z,75.48
2016-07-11T03:35:29.160Z,74.61
2016-07-11T03:36:29.159Z,74.41
2016-07-11T03:37:29.156Z,74.61
2016-07-11T03:38:29.161Z,74.51
2016-07-11T03:39:29.215Z,74.51
2016-07-11T03:40:29.511Z,74.74
2016-07-11T03:41:29.169Z,74.45
2016-07-11T03:42:29.161Z,73.97
2016-07-11T03:43:29.813Z,74.55
2016-07-11T03:44:29.168Z,73.97
2016-07-11T03:45:29.168Z,74.45
2016-07-11T03:46:29.167Z,74.26
2016-07-11T03:47:29.168Z,73.88
2016-07-11T03:48:29.272Z,73.88
2016-07-11T03:49:29.168Z,73.3
2016-07-11T03:51:29.171Z,73.43
2016-07-11T03:52:29.574Z,72.95
2016-07-11T03:53:29.179Z,72.85
2016-07-11T03:54:29.179Z,72.56
2016-07-11T03:55:29.175Z,72.08
2016-07-11T03:56:29.176Z,71.98
2016-07-11T03:57:29.178Z,71.89
2016-07-11T03:58:29.181Z,72.27
2016-07-11T03:59:29.186Z,71.92
2016-07-11T04:00:29.186Z,71.79
2016-07-11T04:01:29.181Z,71.44
2016-07-11T04:02:29.187Z,71.15
2016-07-11T04:03:29.186Z,71.06
2016-07-11T04:04:29.192Z,70.86
2016-07-11T04:05:29.187Z,70.57
2016-07-11T04:06:29.195Z,70.28
2016-07-11T04:07:29.196Z,70.19
2016-07-11T04:08:29.197Z,69.55
2016-07-11T04:09:29.200Z,69.74
2016-07-11T04:10:29.200Z,69.84
2016-07-11T04:11:29.201Z,69.55
2016-07-11T04:12:29.202Z,69.07
2016-07-11T04:13:29.207Z,69.35
2016-07-11T04:14:29.212Z,68.97
2016-07-11T04:15:29.213Z,68.43
2016-07-11T04:16:29.212Z,68.71
2016-07-11T04:17:29.823Z,68.23
2016-07-11T04:18:29.216Z,68.33
2016-07-11T04:19:29.216Z,68.23
2016-07-11T04:20:29.222Z,68.71
2016-07-11T04:21:29.224Z,67.65
2016-07-11T04:22:29.229Z,67.65
2016-07-11T04:23:29.227Z,67.55
2016-07-11T04:24:29.225Z,67.75
2016-07-11T04:25:30.287Z,67.85
2016-07-11T04:26:30.517Z,66.88
2016-07-11T04:27:30.621Z,67.07
2016-07-11T04:28:29.243Z,67.4
2016-07-11T04:29:29.238Z,66.82
2016-07-11T04:30:29.794Z,66.53
2016-07-11T04:31:29.250Z,66.33
2016-07-11T04:32:29.248Z,66.33
2016-07-11T04:33:29.255Z,66.14
2016-07-11T04:34:30.299Z,65.95
2016-07-11T04:35:29.255Z,65.4
2016-07-11T04:36:29.261Z,65.59
2016-07-11T04:37:29.333Z,65.69
2016-07-11T04:38:29.799Z,65.69
2016-07-11T04:39:29.274Z,65.2
2016-07-11T04:40:29.814Z,64.72
2016-07-11T04:41:29.270Z,65.11
2016-07-11T04:42:29.273Z,64.76
2016-07-11T04:43:29.282Z,64.56
2016-07-11T04:44:29.284Z,64.37
2016-07-11T04:45:29.284Z,64.08
2016-07-11T04:46:29.292Z,63.69
2016-07-11T04:47:29.295Z,63.5
2016-07-11T04:48:29.299Z,63.63
2016-07-11T04:49:29.295Z,63.43
2016-07-11T04:50:29.306Z,63.24
2016-07-11T04:51:29.309Z,62.59
2016-07-11T04:52:29.310Z,62.21
2016-07-11T04:53:29.311Z,61.76
2016-07-11T04:54:29.322Z,61.36
2016-07-11T04:55:29.320Z,60.43
2016-07-11T04:56:29.328Z,60.52
2016-07-11T04:57:30.032Z,59.3
2016-07-11T04:58:29.888Z,59.42
2016-07-11T04:59:29.351Z,58.84
2016-07-11T05:00:29.398Z,57.7
2016-07-11T05:01:29.908Z,57.25
2016-07-11T05:02:29.360Z,56.7
2016-07-11T05:03:29.612Z,56.04
2016-07-11T05:04:29.518Z,55.1
2016-07-11T05:05:29.379Z,54.15
2016-07-11T05:06:29.386Z,52.72
2016-07-11T05:07:29.390Z,52.26
2016-07-11T05:08:29.398Z,51.77
2016-07-11T05:09:29.401Z,50.82
2016-07-11T05:10:29.512Z,50.46
2016-07-11T05:11:29.420Z,50.36
2016-07-11T05:12:29.431Z,49.99
2016-07-11T05:13:29.437Z,49.71
2016-07-11T05:14:29.443Z,49.41
2016-07-11T05:15:29.451Z,49.22
2016-07-11T05:16:29.464Z,49.12
2016-07-11T05:17:29.482Z,48.63
2016-07-11T05:18:29.478Z,48.34
2016-07-11T05:19:29.486Z,48.54
2016-07-11T05:20:29.496Z,48.44
2016-07-11T05:21:29.503Z,48.34
2016-07-11T05:22:29.532Z,48.22
2016-07-11T05:23:29.522Z,48.61
2016-07-11T05:24:29.525Z,48.32
2016-07-11T05:25:29.537Z,48.22
2016-07-11T05:26:29.543Z,48.22
2016-07-11T05:27:29.552Z,48.29
2016-07-11T05:28:29.556Z,48.39
2016-07-11T05:29:29.569Z,48.29
2016-07-11T05:30:29.575Z,48.39
2016-07-11T05:31:29.581Z,48.39
2016-07-11T05:32:29.591Z,48.39
2016-07-11T05:33:29.601Z,48.46
2016-07-11T05:34:29.610Z,48.39
2016-07-11T05:35:29.618Z,48.36
2016-07-11T05:36:29.620Z,48.17
2016-07-11T05:37:29.634Z,48.27
2016-07-11T05:38:29.633Z,48.36
2016-07-11T05:39:29.654Z,48.27
2016-07-11T05:40:29.657Z,48.46
2016-07-11T05:41:29.662Z,48.36
2016-07-11T05:42:29.674Z,48.27
2016-07-11T05:43:29.679Z,48.07
2016-07-11T05:44:31.193Z,47.8
2016-07-11T05:45:31.264Z,47.63
2016-07-11T05:46:31.161Z,47.07
2016-07-11T05:47:29.712Z,47.17
2016-07-11T05:48:29.724Z,46.8
2016-07-11T05:49:29.724Z,45.95
2016-07-11T05:50:29.771Z,45.39
2016-07-11T05:51:29.935Z,44.92
2016-07-11T05:52:29.755Z,44.04
2016-07-11T05:53:29.764Z,43.67
2016-07-11T05:54:29.779Z,43.4
2016-07-11T05:55:29.877Z,42.81
2016-07-11T05:56:30.901Z,42.44
2016-07-11T05:57:29.804Z,42.05
2016-07-11T05:58:29.810Z,41.68
2016-07-11T05:59:29.831Z,41.31
2016-07-11T06:00:29.836Z,41.13
2016-07-11T06:01:29.849Z,40.47
2016-07-11T06:02:29.857Z,39.8
2016-07-11T06:03:29.870Z,38.84
2016-07-11T06:04:29.883Z,38.17
2016-07-11T06:05:29.889Z,37.92
2016-07-11T06:06:29.904Z,37.34
2016-07-11T06:07:29.914Z,36.57
2016-07-11T06:08:29.931Z,35.8
2016-07-11T06:09:29.941Z,35.33
2016-07-11T06:10:29.950Z,34.66
2016-07-11T06:11:29.963Z,33.98
2016-07-11T06:12:29.980Z,33.61
2016-07-11T06:13:29.992Z,32.93
2016-07-11T06:14:30.003Z,32.06
2016-07-11T06:15:30.020Z,31.78
2016-07-11T06:16:30.034Z,30.81
2016-07-11T06:17:30.045Z,30.52
2016-07-11T06:18:30.413Z,30.43
2016-07-11T06:19:30.074Z,29.75
2016-07-11T06:20:30.092Z,29.27
2016-07-11T06:21:30.105Z,29.07
2016-07-11T06:22:30.122Z,28.2
2016-07-11T06:23:30.142Z,28
2016-07-11T06:24:30.147Z,27.32
2016-07-11T06:25:30.669Z,26.73
2016-07-11T06:27:30.646Z,26.34
2016-07-11T06:28:30.217Z,26.35
2016-07-11T06:29:30.227Z,25.76
2016-07-11T06:30:30.250Z,25.48
2016-07-11T06:31:30.262Z,25.08
2016-07-11T06:32:30.279Z,24.89
2016-07-11T06:33:30.298Z,24.79
2016-07-11T06:34:30.313Z,24.49
2016-07-11T06:35:30.332Z,24.71
2016-07-11T06:36:30.351Z,24.32
2016-07-11T06:37:30.372Z,23.93
2016-07-11T06:38:30.380Z,23.52
2016-07-11T06:39:30.402Z,23.14
2016-07-11T06:40:30.417Z,23.34
2016-07-11T06:41:30.440Z,23.04
2016-07-11T06:42:30.458Z,23.35
2016-07-11T06:43:30.476Z,22.75
2016-07-11T06:44:30.489Z,22.66
2016-07-11T06:45:30.514Z,22.47
2016-07-11T06:46:30.529Z,22.47
2016-07-11T06:47:30.546Z,21.98
2016-07-11T06:48:30.568Z,21.58
2016-07-11T06:49:30.580Z,21.28
2016-07-11T06:50:30.598Z,21.59
2016-07-11T06:51:30.621Z,21.09
2016-07-11T06:52:30.640Z,21.09
2016-07-11T06:53:30.659Z,21.09
2016-07-11T06:54:30.678Z,20.9
2016-07-11T06:55:30.696Z,21
2016-07-11T06:56:30.713Z,20.51
2016-07-11T06:57:30.737Z,20.71
2016-07-11T06:58:30.753Z,20.21
2016-07-11T06:59:30.771Z,20.51
2016-07-11T07:00:30.787Z,20.41
2016-07-11T07:01:30.807Z,20.7
2016-07-11T07:02:30.833Z,20.7
2016-07-11T07:03:31.295Z,20.5
2016-07-11T07:04:32.154Z,20.7
2016-07-11T07:05:31.364Z,20.6
2016-07-11T07:06:30.906Z,20.5
2016-07-11T07:07:30.920Z,20.7
2016-07-11T07:08:30.941Z,20.6
2016-07-11T07:09:30.958Z,20.5
2016-07-11T07:10:31.082Z,20.7
2016-07-11T07:11:31.954Z,20.1
2016-07-11T07:12:31.015Z,20.3
2016-07-11T07:13:31.432Z,20.1
2016-07-11T07:14:31.204Z,20.2
2016-07-11T07:15:31.088Z,20
2016-07-11T07:16:31.093Z,20.2
2016-07-11T07:17:31.109Z,20.19
2016-07-11T07:18:31.129Z,20.59
2016-07-11T07:19:31.145Z,20.59
2016-07-11T07:20:31.790Z,20.3
2016-07-11T07:21:31.183Z,20.2
2016-07-11T07:22:31.204Z,20
2016-07-11T07:23:31.223Z,20.89
2016-07-11T07:24:31.238Z,20.29
2016-07-11T07:25:31.267Z,20.19
2016-07-11T07:26:31.885Z,20.09
2016-07-11T07:27:31.294Z,20.09
2016-07-11T07:28:31.321Z,19.99
2016-07-11T07:29:31.331Z,20.19
2016-07-11T07:30:31.362Z,19.99
2016-07-11T07:31:31.376Z,19.79
2016-07-11T07:32:31.390Z,19.89
2016-07-11T07:33:31.409Z,19.89
2016-07-11T07:34:32.432Z,19.89
2016-07-11T07:35:31.449Z,19.99
2016-07-11T07:36:32.075Z,19.89
2016-07-11T07:37:31.631Z,19.98
2016-07-11T07:38:31.503Z,19.88
2016-07-11T07:39:31.527Z,19.98
2016-07-11T07:40:31.542Z,20.18
2016-07-11T07:41:31.707Z,20.18
2016-07-11T07:42:31.579Z,20.18
2016-07-11T07:43:46.508Z,20.19
2016-07-11T07:44:31.968Z,20.28
2016-07-11T07:45:32.584Z,19.88
2016-07-11T07:46:32.503Z,19.98
2016-07-11T07:47:32.327Z,20.08
2016-07-11T07:48:31.693Z,20.37
2016-07-11T07:49:31.715Z,20.07
2016-07-11T07:50:31.931Z,20.17
2016-07-11T07:51:31.748Z,20.47
2016-07-11T07:52:31.770Z,20.76
2016-07-11T07:53:31.798Z,20.95
2016-07-11T07:54:31.805Z,20.76
2016-07-11T07:55:31.828Z,20.95
2016-07-11T07:56:31.849Z,20.95
2016-07-11T07:57:31.858Z,20.95
2016-07-11T07:58:31.883Z,21.15
2016-07-11T07:59:31.899Z,21.15
2016-07-11T08:00:32.543Z,20.86
2016-07-11T08:01:31.937Z,20.95
2016-07-11T08:02:31.946Z,20.95
2016-07-11T08:03:31.974Z,20.95
2016-07-11T08:04:31.992Z,20.95
2016-07-11T08:05:32.011Z,21.04
2016-07-11T08:06:32.028Z,21.14
2016-07-11T08:07:32.046Z,21.13
2016-07-11T08:08:32.067Z,21.43
2016-07-11T08:09:32.079Z,21.52
2016-07-11T08:10:32.107Z,21.22
2016-07-11T08:11:32.116Z,21.52
2016-07-11T08:12:32.135Z,22.02
2016-07-11T08:13:32.153Z,21.52
2016-07-11T08:14:32.175Z,21.51
2016-07-11T08:15:32.189Z,21.51
2016-07-11T08:16:32.206Z,21.81
2016-07-11T08:17:32.216Z,21.81
2016-07-11T08:18:32.241Z,21.8
2016-07-11T08:19:32.254Z,22.19
2016-07-11T08:21:32.402Z,22.38
2016-07-11T08:22:32.309Z,22.58
2016-07-11T08:23:32.323Z,22.38
2016-07-11T08:24:32.337Z,22.37
2016-07-11T08:25:32.586Z,22.47
2016-07-11T08:26:32.378Z,22.86
2016-07-11T08:27:32.693Z,23.25
2016-07-11T08:28:32.406Z,23.65
2016-07-11T08:29:33.930Z,23.84
2016-07-11T08:30:32.440Z,23.93
2016-07-11T08:31:33.910Z,23.63
2016-07-11T08:32:32.466Z,24.32
2016-07-11T08:33:32.482Z,24.32
2016-07-11T08:34:32.503Z,24.69
2016-07-11T08:35:32.516Z,24.6
2016-07-11T08:36:32.528Z,24.6
2016-07-11T08:37:32.545Z,24.5
2016-07-11T08:38:32.557Z,24.6
2016-07-11T08:39:32.574Z,24.88
2016-07-11T08:40:32.595Z,24.88
2016-07-11T08:41:32.603Z,25.18
2016-07-11T08:42:32.615Z,25.16
2016-07-11T08:43:32.632Z,25.46
2016-07-11T08:44:32.643Z,25.46
2016-07-11T08:45:32.663Z,25.45
2016-07-11T08:46:32.673Z,26.32
2016-07-11T08:47:32.691Z,26.32
2016-07-11T08:48:32.698Z,26.41
2016-07-11T08:49:32.715Z,26.71
2016-07-11T08:50:32.730Z,26.71
2016-07-11T08:51:32.743Z,26.99
2016-07-11T08:52:32.955Z,26.79
2016-07-11T08:53:33.216Z,27.09
2016-07-11T08:54:32.784Z,27.39
2016-07-11T08:55:32.802Z,27.78
2016-07-11T08:56:33.009Z,27.96
2016-07-11T08:57:32.822Z,27.78
2016-07-11T08:58:32.836Z,27.97
2016-07-11T08:59:32.847Z,27.97
2016-07-11T09:00:32.858Z,28.55
2016-07-11T09:02:32.886Z,28.45
2016-07-11T09:03:32.904Z,28.26
2016-07-11T09:04:32.917Z,28.93
2016-07-11T09:05:32.921Z,28.83
2016-07-11T09:06:32.929Z,29.03
2016-07-11T09:07:32.941Z,29.02
2016-07-11T09:08:32.958Z,29.51
2016-07-11T09:09:32.979Z,29.8
2016-07-11T09:10:32.990Z,29.99
2016-07-11T09:11:33.005Z,30.27
2016-07-11T09:12:33.012Z,30.56
2016-07-11T09:13:33.023Z,30.76
2016-07-11T09:14:33.039Z,30.55
2016-07-11T09:15:33.053Z,30.55
2016-07-11T09:16:33.064Z,30.25
2016-07-11T09:17:33.076Z,30.45
2016-07-11T09:18:33.083Z,30.65
2016-07-11T09:19:33.104Z,31.13
2016-07-11T09:20:33.110Z,31.32
2016-07-11T09:21:33.124Z,31.32
2016-07-11T09:22:33.143Z,31.9
2016-07-11T09:23:33.148Z,31.71
2016-07-11T09:24:33.865Z,31.99
2016-07-11T09:25:33.169Z,32.28
2016-07-11T09:26:33.182Z,32.97
2016-07-11T09:27:33.192Z,32.57
2016-07-11T09:28:33.203Z,32.86
2016-07-11T09:29:33.214Z,33.05
2016-07-11T09:30:33.222Z,33.25
2016-07-11T09:31:33.237Z,33.14
2016-07-11T09:32:33.250Z,33.43
2016-07-11T09:33:33.262Z,33.33
2016-07-11T09:34:33.271Z,33.43
2016-07-11T09:35:34.064Z,33.61
2016-07-11T09:36:33.291Z,33.72
2016-07-11T09:37:33.302Z,33.61
2016-07-11T09:38:33.310Z,33.7
2016-07-11T09:39:33.321Z,34.3
2016-07-11T09:40:33.335Z,34.57
2016-07-11T09:41:34.588Z,34.57
2016-07-11T09:42:33.350Z,34.67
2016-07-11T09:43:33.362Z,34.57
2016-07-11T09:44:33.958Z,34.67
2016-07-11T09:45:33.386Z,34.94
2016-07-11T09:46:33.396Z,35.04
2016-07-11T09:47:33.401Z,34.94
2016-07-11T09:49:33.420Z,34.94
2016-07-11T09:50:34.228Z,35.04
2016-07-11T09:51:33.444Z,35.24
2016-07-11T09:52:33.461Z,35.24
2016-07-11T09:53:33.469Z,35.14
2016-07-11T09:54:33.775Z,35.04
2016-07-11T09:55:33.487Z,35.14
2016-07-11T09:56:33.492Z,35.04
2016-07-11T09:57:33.506Z,35.25
2016-07-11T09:58:33.512Z,35.06
2016-07-11T09:59:33.527Z,35.06
2016-07-11T10:00:33.536Z,34.96
2016-07-11T10:01:33.544Z,34.67
2016-07-11T10:02:33.551Z,34.96
2016-07-11T10:03:33.558Z,34.47
2016-07-11T10:04:33.571Z,34.57
2016-07-11T10:05:33.580Z,34.57
2016-07-11T10:06:33.591Z,34.57
2016-07-11T10:07:33.606Z,34.67
2016-07-11T10:08:33.615Z,34.67
2016-07-11T10:09:33.627Z,34.86
2016-07-11T10:10:34.583Z,34.38
2016-07-11T10:11:33.793Z,34.28
2016-07-11T10:12:33.656Z,34.1
2016-07-11T10:13:48.573Z,34.39
2016-07-11T10:16:33.695Z,33.7
2016-07-11T10:17:33.700Z,33.8
2016-07-11T10:18:33.708Z,33.7
2016-07-11T10:19:33.723Z,33.9
2016-07-11T10:20:33.730Z,33.9
2016-07-11T10:21:33.748Z,33.7
2016-07-11T10:22:34.652Z,33.62
2016-07-11T10:23:33.763Z,33.72
2016-07-11T10:24:33.777Z,33.53
2016-07-11T10:25:33.783Z,33.33
2016-07-11T10:26:33.789Z,33.04
2016-07-11T10:27:33.802Z,32.95
2016-07-11T10:28:33.810Z,32.86
2016-07-11T10:29:33.822Z,32.66
2016-07-11T10:30:33.834Z,32.46
2016-07-11T10:31:33.844Z,32.57
2016-07-11T10:32:33.857Z,32.27
2016-07-11T10:33:33.859Z,32.18
2016-07-11T10:34:33.874Z,32.17
2016-07-11T10:35:33.883Z,32.27
2016-07-11T10:36:33.896Z,32.28
2016-07-11T10:37:33.901Z,32.09
2016-07-11T10:38:34.619Z,31.79
2016-07-11T10:39:33.921Z,31.79
2016-07-11T10:40:33.939Z,31.99
2016-07-11T10:41:33.943Z,31.89
2016-07-11T10:42:33.952Z,31.89
2016-07-11T10:43:33.969Z,31.99
2016-07-11T10:44:33.977Z,31.89
2016-07-11T10:45:33.988Z,31.89
2016-07-11T10:46:33.993Z,31.99
2016-07-11T10:47:34.004Z,31.99
2016-07-11T10:48:34.020Z,32.09
2016-07-11T10:49:34.025Z,31.89
2016-07-11T10:50:34.038Z,31.4
2016-07-11T10:51:34.052Z,31.81
2016-07-11T10:52:34.059Z,31.71
2016-07-11T10:53:34.070Z,31.41
2016-07-11T10:54:34.081Z,31.41
2016-07-11T10:55:34.087Z,31.41
2016-07-11T10:56:34.101Z,31.23
2016-07-11T10:57:34.109Z,31.02
2016-07-11T10:58:34.118Z,31.12
2016-07-11T10:59:34.132Z,31.43
2016-07-11T11:00:34.141Z,31.22
2016-07-11T11:01:34.153Z,30.82
2016-07-11T11:02:34.168Z,30.55
2016-07-11T11:03:34.174Z,30.35
2016-07-11T11:04:34.186Z,29.94
2016-07-11T11:05:34.196Z,29.94
2016-07-11T11:06:34.205Z,30.14
2016-07-11T11:07:34.218Z,30.04
2016-07-11T11:08:34.228Z,30.02
2016-07-11T11:09:34.236Z,29.53
2016-07-11T11:10:34.244Z,30.02
2016-07-11T11:11:34.258Z,30.32
2016-07-11T11:12:34.270Z,30.3
2016-07-11T11:13:34.280Z,30.52
2016-07-11T11:14:34.290Z,30.4
2016-07-11T11:15:34.296Z,30.4
2016-07-11T11:16:34.309Z,30.21
2016-07-11T11:17:54.221Z,30.62
2016-07-11T11:19:35.849Z,30.71
2016-07-11T11:20:34.351Z,30.52
2016-07-11T11:21:34.360Z,30.32
2016-07-11T11:22:34.369Z,30.63
2016-07-11T11:23:34.376Z,30.42
2016-07-11T11:24:34.389Z,30.42
2016-07-11T11:25:34.400Z,30.32
2016-07-11T11:26:34.416Z,30.22
2016-07-11T11:27:34.418Z,30.42
2016-07-11T11:28:34.427Z,30.32
2016-07-11T11:29:34.439Z,30.71
2016-07-11T11:30:34.854Z,30.6
2016-07-11T11:31:35.011Z,30.71
2016-07-11T11:32:34.467Z,30.7
2016-07-11T11:33:34.484Z,30.6
2016-07-11T11:34:34.493Z,30.5
2016-07-11T11:35:34.499Z,30.5
2016-07-11T11:36:34.514Z,30.6
2016-07-11T11:37:34.523Z,30.21
2016-07-11T11:38:34.528Z,30.19
2016-07-11T11:39:34.593Z,30.58
2016-07-11T11:41:34.613Z,30.49
2016-07-11T11:43:34.585Z,30.58
2016-07-11T11:44:34.841Z,30.29
2016-07-11T11:45:34.597Z,30.21
2016-07-11T11:46:34.612Z,30.3
2016-07-11T11:47:34.625Z,30.5
2016-07-11T11:48:34.635Z,30.6
2016-07-11T11:49:34.644Z,30.21
2016-07-11T11:50:34.652Z,30.21
2016-07-11T11:51:34.661Z,30.39
2016-07-11T11:52:34.672Z,30.29
2016-07-11T11:53:34.680Z,30.58
2016-07-11T11:54:34.687Z,30.58
2016-07-11T11:55:34.706Z,30.01
2016-07-11T11:56:36.220Z,30.21
2016-07-11T11:57:34.719Z,30.11
2016-07-11T11:58:35.360Z,30.11
2016-07-11T11:59:35.874Z,30.11
2016-07-11T12:00:34.769Z,29.82
2016-07-11T12:01:35.478Z,29.72
2016-07-11T12:02:35.170Z,29.82
2016-07-11T12:03:34.782Z,29.82
2016-07-11T12:04:34.789Z,29.82
2016-07-11T12:05:35.499Z,29.82
2016-07-11T12:07:34.818Z,30.01
2016-07-11T12:08:35.213Z,30.19
2016-07-11T12:09:34.836Z,29.9
2016-07-11T12:10:35.733Z,29.8
2016-07-11T12:11:34.860Z,29.91
2016-07-11T12:12:34.872Z,30.1
2016-07-11T12:13:34.877Z,30.3
2016-07-11T12:14:34.890Z,30.39
2016-07-11T12:15:34.900Z,30.49
2016-07-11T12:16:34.914Z,30.39
2016-07-11T12:17:34.916Z,30.39
2016-07-11T12:18:34.930Z,30.29
2016-07-11T12:19:34.940Z,30.49
2016-07-11T12:20:34.948Z,30.29
2016-07-11T12:21:34.957Z,30.49
2016-07-11T12:22:34.972Z,30.49
2016-07-11T12:23:34.979Z,30.39
2016-07-11T12:24:34.987Z,30.21
2016-07-11T12:25:35.000Z,30
2016-07-11T12:26:35.003Z,30.19
2016-07-11T12:27:35.018Z,29.41
2016-07-11T12:28:35.024Z,29.6
2016-07-11T12:29:35.038Z,29.62
2016-07-11T12:30:35.049Z,29.52
2016-07-11T12:31:35.060Z,29.52
2016-07-11T12:32:35.069Z,29.62
2016-07-11T12:33:35.077Z,29.91
2016-07-11T12:34:35.084Z,29.53
2016-07-11T12:35:35.094Z,29.53
2016-07-11T12:36:35.106Z,29.44
2016-07-11T12:37:35.112Z,29.34
2016-07-11T12:38:35.126Z,29.44
2016-07-11T12:39:35.130Z,29.43
2016-07-11T12:40:35.144Z,29.24
2016-07-11T12:41:35.153Z,28.95
2016-07-11T12:42:35.166Z,28.95
2016-07-11T12:43:35.182Z,29.05
2016-07-11T12:44:35.183Z,29.05
2016-07-11T12:45:35.196Z,28.95
2016-07-11T12:46:35.210Z,28.85
2016-07-11T12:47:35.213Z,28.85
2016-07-11T12:48:36.130Z,28.95
2016-07-11T12:49:35.234Z,28.55
2016-07-11T12:50:35.249Z,28.75
2016-07-11T12:51:36.105Z,28.85
2016-07-11T12:52:35.265Z,28.55
2016-07-11T12:53:35.278Z,28.06
2016-07-11T12:54:35.284Z,28.26
2016-07-11T12:55:35.294Z,28.17
2016-07-11T12:56:35.304Z,27.98
2016-07-11T12:57:51.025Z,28.08
2016-07-11T12:58:35.329Z,28.27
2016-07-11T12:59:35.337Z,27.78
2016-07-11T13:00:35.348Z,28.19
2016-07-11T13:01:35.926Z,28.09
2016-07-11T13:02:35.369Z,27.8
2016-07-11T13:03:35.382Z,27.7
2016-07-11T13:04:35.388Z,27.7
2016-07-11T13:05:35.396Z,27.7
2016-07-11T13:06:35.407Z,27.8
2016-07-11T13:07:35.417Z,27.89
2016-07-11T13:08:35.434Z,27.89
2016-07-11T13:09:35.444Z,27.6